sensor_id;sensor_type;location;lat;lon;timestamp;temperature;humidity
36292;DHT22;22327;51.208;6.418;2023-03-01T00:01:23;3.40;84.90
36292;DHT22;22327;51.208;6.418;2023-03-01T00:03:50;3.30;85.00
36292;DHT22;22327;51.208;6.418;2023-03-01T00:06:15;3.30;85.30
36292;DHT22;22327;51.208;6.418;2023-03-01T00:08:42;3.30;85.60
36292;DHT22;22327;51.208;6.418;2023-03-01T00:11:09;3.30;85.70
36292;DHT22;22327;51.208;6.418;2023-03-01T00:13:36;3.30;86.10
36292;DHT22;22327;51.208;6.418;2023-03-01T00:16:06;3.20;86.10
36292;DHT22;22327;51.208;6.418;2023-03-01T00:18:32;3.20;86.50
36292;DHT22;22327;51.208;6.418;2023-03-01T00:20:58;3.20;86.50
36292;DHT22;22327;51.208;6.418;2023-03-01T00:23:24;3.20;86.40
36292;DHT22;22327;51.208;6.418;2023-03-01T00:25:50;3.20;86.30
36292;DHT22;22327;51.208;6.418;2023-03-01T00:28:17;3.20;86.50
36292;DHT22;22327;51.208;6.418;2023-03-01T00:30:42;3.10;86.80
36292;DHT22;22327;51.208;6.418;2023-03-01T00:33:08;3.10;86.90
36292;DHT22;22327;51.208;6.418;2023-03-01T00:35:34;3.10;87.50
36292;DHT22;22327;51.208;6.418;2023-03-01T00:38:00;3.00;87.50
36292;DHT22;22327;51.208;6.418;2023-03-01T00:40:27;3.00;87.80
36292;DHT22;22327;51.208;6.418;2023-03-01T00:42:53;3.00;87.80
36292;DHT22;22327;51.208;6.418;2023-03-01T00:45:18;3.10;87.40
36292;DHT22;22327;51.208;6.418;2023-03-01T00:47:44;3.10;87.20
36292;DHT22;22327;51.208;6.418;2023-03-01T00:50:10;3.10;87.30
36292;DHT22;22327;51.208;6.418;2023-03-01T00:52:36;3.10;87.10
36292;DHT22;22327;51.208;6.418;2023-03-01T00:55:03;3.10;87.20
36292;DHT22;22327;51.208;6.418;2023-03-01T00:57:29;3.10;87.30
36292;DHT22;22327;51.208;6.418;2023-03-01T00:59:55;3.10;87.30
36292;DHT22;22327;51.208;6.418;2023-03-01T01:02:21;3.00;87.20
36292;DHT22;22327;51.208;6.418;2023-03-01T01:04:47;3.00;87.50
36292;DHT22;22327;51.208;6.418;2023-03-01T01:07:13;2.90;87.90
36292;DHT22;22327;51.208;6.418;2023-03-01T01:09:38;2.90;88.40
36292;DHT22;22327;51.208;6.418;2023-03-01T01:12:04;2.80;88.70
36292;DHT22;22327;51.208;6.418;2023-03-01T01:14:30;2.80;89.00
36292;DHT22;22327;51.208;6.418;2023-03-01T01:16:56;2.80;89.00
36292;DHT22;22327;51.208;6.418;2023-03-01T01:19:22;2.80;89.20
36292;DHT22;22327;51.208;6.418;2023-03-01T01:21:48;2.70;89.20
36292;DHT22;22327;51.208;6.418;2023-03-01T01:24:13;2.70;89.50
36292;DHT22;22327;51.208;6.418;2023-03-01T01:26:39;2.60;90.10
36292;DHT22;22327;51.208;6.418;2023-03-01T01:29:05;2.60;90.00
36292;DHT22;22327;51.208;6.418;2023-03-01T01:31:32;2.60;90.10
36292;DHT22;22327;51.208;6.418;2023-03-01T01:34:01;2.60;90.10
36292;DHT22;22327;51.208;6.418;2023-03-01T01:36:28;2.60;90.20
36292;DHT22;22327;51.208;6.418;2023-03-01T01:38:54;2.60;90.10
36292;DHT22;22327;51.208;6.418;2023-03-01T01:41:20;2.60;90.10
36292;DHT22;22327;51.208;6.418;2023-03-01T01:43:49;2.50;90.20
36292;DHT22;22327;51.208;6.418;2023-03-01T01:48:47;2.40;90.40
36292;DHT22;22327;51.208;6.418;2023-03-01T01:51:19;2.40;90.60
36292;DHT22;22327;51.208;6.418;2023-03-01T01:53:49;2.40;90.60
36292;DHT22;22327;51.208;6.418;2023-03-01T01:56:17;2.40;90.70
36292;DHT22;22327;51.208;6.418;2023-03-01T01:58:44;2.40;90.90
36292;DHT22;22327;51.208;6.418;2023-03-01T02:01:11;2.30;90.90
36292;DHT22;22327;51.208;6.418;2023-03-01T02:03:39;2.30;91.00
36292;DHT22;22327;51.208;6.418;2023-03-01T02:06:26;2.30;91.20
36292;DHT22;22327;51.208;6.418;2023-03-01T02:08:57;2.30;91.30
36292;DHT22;22327;51.208;6.418;2023-03-01T02:11:24;2.30;91.30
36292;DHT22;22327;51.208;6.418;2023-03-01T02:13:51;2.30;91.40
36292;DHT22;22327;51.208;6.418;2023-03-01T02:16:18;2.30;91.40
36292;DHT22;22327;51.208;6.418;2023-03-01T02:18:44;2.30;91.30
36292;DHT22;22327;51.208;6.418;2023-03-01T02:21:30;2.30;91.40
36292;DHT22;22327;51.208;6.418;2023-03-01T02:27:00;2.20;91.50
36292;DHT22;22327;51.208;6.418;2023-03-01T02:29:26;2.20;91.80
36292;DHT22;22327;51.208;6.418;2023-03-01T02:31:55;2.10;92.00
36292;DHT22;22327;51.208;6.418;2023-03-01T02:34:23;2.10;92.10
36292;DHT22;22327;51.208;6.418;2023-03-01T02:36:55;2.10;92.30
36292;DHT22;22327;51.208;6.418;2023-03-01T02:39:34;2.10;92.30
36292;DHT22;22327;51.208;6.418;2023-03-01T02:42:02;2.10;92.20
36292;DHT22;22327;51.208;6.418;2023-03-01T02:44:29;2.10;92.30
36292;DHT22;22327;51.208;6.418;2023-03-01T02:46:56;2.00;92.30
36292;DHT22;22327;51.208;6.418;2023-03-01T02:49:27;2.00;92.50
36292;DHT22;22327;51.208;6.418;2023-03-01T02:52:20;2.00;92.60
36292;DHT22;22327;51.208;6.418;2023-03-01T02:55:01;2.10;92.40
36292;DHT22;22327;51.208;6.418;2023-03-01T02:57:28;2.10;92.50
36292;DHT22;22327;51.208;6.418;2023-03-01T02:59:56;2.00;92.60
36292;DHT22;22327;51.208;6.418;2023-03-01T03:02:26;2.00;92.60
36292;DHT22;22327;51.208;6.418;2023-03-01T03:05:17;2.10;92.50
36292;DHT22;22327;51.208;6.418;2023-03-01T03:07:45;2.10;92.40
36292;DHT22;22327;51.208;6.418;2023-03-01T03:10:17;2.00;92.60
36292;DHT22;22327;51.208;6.418;2023-03-01T03:12:48;2.10;92.50
36292;DHT22;22327;51.208;6.418;2023-03-01T03:15:14;2.10;92.50
36292;DHT22;22327;51.208;6.418;2023-03-01T03:17:41;2.00;92.60
36292;DHT22;22327;51.208;6.418;2023-03-01T03:20:11;2.00;92.80
36292;DHT22;22327;51.208;6.418;2023-03-01T03:22:39;2.00;92.40
36292;DHT22;22327;51.208;6.418;2023-03-01T03:25:06;2.00;92.40
36292;DHT22;22327;51.208;6.418;2023-03-01T03:27:39;1.90;92.60
36292;DHT22;22327;51.208;6.418;2023-03-01T03:30:07;1.90;92.90
36292;DHT22;22327;51.208;6.418;2023-03-01T03:32:38;1.80;92.90
36292;DHT22;22327;51.208;6.418;2023-03-01T03:35:05;1.80;93.20
36292;DHT22;22327;51.208;6.418;2023-03-01T03:37:37;1.80;93.20
36292;DHT22;22327;51.208;6.418;2023-03-01T03:40:21;1.80;93.20
36292;DHT22;22327;51.208;6.418;2023-03-01T03:42:46;1.80;93.20
36292;DHT22;22327;51.208;6.418;2023-03-01T03:45:13;1.80;93.10
36292;DHT22;22327;51.208;6.418;2023-03-01T03:47:39;1.80;93.50
36292;DHT22;22327;51.208;6.418;2023-03-01T03:50:04;1.80;93.20
36292;DHT22;22327;51.208;6.418;2023-03-01T03:52:30;1.80;93.10
36292;DHT22;22327;51.208;6.418;2023-03-01T03:54:55;1.90;93.00
36292;DHT22;22327;51.208;6.418;2023-03-01T03:57:21;1.90;93.00
36292;DHT22;22327;51.208;6.418;2023-03-01T03:59:47;1.80;92.80
36292;DHT22;22327;51.208;6.418;2023-03-01T04:02:12;1.80;93.00
36292;DHT22;22327;51.208;6.418;2023-03-01T04:04:38;1.80;93.00
36292;DHT22;22327;51.208;6.418;2023-03-01T04:07:03;1.70;92.90
36292;DHT22;22327;51.208;6.418;2023-03-01T04:09:29;1.80;93.20
36292;DHT22;22327;51.208;6.418;2023-03-01T04:11:55;1.70;93.10
36292;DHT22;22327;51.208;6.418;2023-03-01T04:14:21;1.70;93.10
36292;DHT22;22327;51.208;6.418;2023-03-01T04:16:46;1.70;93.20
36292;DHT22;22327;51.208;6.418;2023-03-01T04:19:12;1.70;93.20
36292;DHT22;22327;51.208;6.418;2023-03-01T04:21:37;1.70;93.10
36292;DHT22;22327;51.208;6.418;2023-03-01T04:24:04;1.70;93.10
36292;DHT22;22327;51.208;6.418;2023-03-01T04:26:29;1.70;93.10
36292;DHT22;22327;51.208;6.418;2023-03-01T04:28:55;1.60;93.10
36292;DHT22;22327;51.208;6.418;2023-03-01T04:31:21;1.50;93.10
36292;DHT22;22327;51.208;6.418;2023-03-01T04:33:47;1.60;93.10
36292;DHT22;22327;51.208;6.418;2023-03-01T04:36:15;1.50;93.10
36292;DHT22;22327;51.208;6.418;2023-03-01T04:38:41;1.50;93.10
36292;DHT22;22327;51.208;6.418;2023-03-01T04:41:08;1.40;93.30
36292;DHT22;22327;51.208;6.418;2023-03-01T04:43:35;1.40;93.40
36292;DHT22;22327;51.208;6.418;2023-03-01T04:46:02;1.30;93.50
36292;DHT22;22327;51.208;6.418;2023-03-01T04:48:29;1.30;93.50
36292;DHT22;22327;51.208;6.418;2023-03-01T04:50:55;1.30;93.70
36292;DHT22;22327;51.208;6.418;2023-03-01T04:53:20;1.20;93.80
36292;DHT22;22327;51.208;6.418;2023-03-01T04:55:46;1.20;93.90
36292;DHT22;22327;51.208;6.418;2023-03-01T04:58:11;1.20;94.10
36292;DHT22;22327;51.208;6.418;2023-03-01T05:00:37;1.10;94.00
36292;DHT22;22327;51.208;6.418;2023-03-01T05:03:02;1.10;94.20
36292;DHT22;22327;51.208;6.418;2023-03-01T05:05:32;1.10;94.20
36292;DHT22;22327;51.208;6.418;2023-03-01T05:08:03;1.10;94.30
36292;DHT22;22327;51.208;6.418;2023-03-01T05:10:31;1.10;94.40
36292;DHT22;22327;51.208;6.418;2023-03-01T05:12:58;1.00;94.40
36292;DHT22;22327;51.208;6.418;2023-03-01T05:15:25;1.10;94.40
36292;DHT22;22327;51.208;6.418;2023-03-01T05:17:52;1.00;94.40
36292;DHT22;22327;51.208;6.418;2023-03-01T05:20:19;1.00;94.50
36292;DHT22;22327;51.208;6.418;2023-03-01T05:22:48;1.00;94.50
36292;DHT22;22327;51.208;6.418;2023-03-01T05:25:14;1.00;94.60
36292;DHT22;22327;51.208;6.418;2023-03-01T05:27:39;1.00;94.60
36292;DHT22;22327;51.208;6.418;2023-03-01T05:30:05;1.00;94.60
36292;DHT22;22327;51.208;6.418;2023-03-01T05:32:40;1.00;94.80
36292;DHT22;22327;51.208;6.418;2023-03-01T05:35:06;1.00;94.70
36292;DHT22;22327;51.208;6.418;2023-03-01T05:37:31;1.00;94.70
36292;DHT22;22327;51.208;6.418;2023-03-01T05:39:58;1.00;94.60
36292;DHT22;22327;51.208;6.418;2023-03-01T05:42:23;1.00;94.60
36292;DHT22;22327;51.208;6.418;2023-03-01T05:44:49;0.90;94.80
36292;DHT22;22327;51.208;6.418;2023-03-01T05:47:14;0.90;94.80
36292;DHT22;22327;51.208;6.418;2023-03-01T05:49:39;1.00;94.80
36292;DHT22;22327;51.208;6.418;2023-03-01T05:52:05;1.00;94.80
36292;DHT22;22327;51.208;6.418;2023-03-01T05:54:30;1.00;94.70
36292;DHT22;22327;51.208;6.418;2023-03-01T05:56:56;1.00;94.70
36292;DHT22;22327;51.208;6.418;2023-03-01T05:59:21;1.00;94.60
36292;DHT22;22327;51.208;6.418;2023-03-01T06:01:47;1.00;94.50
36292;DHT22;22327;51.208;6.418;2023-03-01T06:04:12;1.00;94.50
36292;DHT22;22327;51.208;6.418;2023-03-01T06:06:38;1.00;94.50
36292;DHT22;22327;51.208;6.418;2023-03-01T06:09:07;1.00;94.50
36292;DHT22;22327;51.208;6.418;2023-03-01T06:11:35;1.00;94.60
36292;DHT22;22327;51.208;6.418;2023-03-01T06:14:01;1.00;94.70
36292;DHT22;22327;51.208;6.418;2023-03-01T06:16:26;0.90;94.80
36292;DHT22;22327;51.208;6.418;2023-03-01T06:18:52;0.90;94.80
36292;DHT22;22327;51.208;6.418;2023-03-01T06:21:17;0.80;94.90
36292;DHT22;22327;51.208;6.418;2023-03-01T06:23:43;0.80;95.00
36292;DHT22;22327;51.208;6.418;2023-03-01T06:26:09;0.80;95.30
36292;DHT22;22327;51.208;6.418;2023-03-01T06:28:35;0.80;95.40
36292;DHT22;22327;51.208;6.418;2023-03-01T06:31:01;0.80;95.50
36292;DHT22;22327;51.208;6.418;2023-03-01T06:33:26;0.80;95.50
36292;DHT22;22327;51.208;6.418;2023-03-01T06:35:55;0.80;95.50
36292;DHT22;22327;51.208;6.418;2023-03-01T06:38:22;0.80;95.60
36292;DHT22;22327;51.208;6.418;2023-03-01T06:40:52;0.90;95.80
36292;DHT22;22327;51.208;6.418;2023-03-01T06:43:19;1.00;95.60
36292;DHT22;22327;51.208;6.418;2023-03-01T06:45:44;1.10;95.70
36292;DHT22;22327;51.208;6.418;2023-03-01T06:48:11;1.20;95.70
36292;DHT22;22327;51.208;6.418;2023-03-01T06:50:37;1.40;95.80
36292;DHT22;22327;51.208;6.418;2023-03-01T06:53:03;1.70;95.30
36292;DHT22;22327;51.208;6.418;2023-03-01T06:55:29;1.90;95.00
36292;DHT22;22327;51.208;6.418;2023-03-01T06:57:55;2.00;94.50
36292;DHT22;22327;51.208;6.418;2023-03-01T07:00:22;2.10;94.40
36292;DHT22;22327;51.208;6.418;2023-03-01T07:02:48;2.30;94.00
36292;DHT22;22327;51.208;6.418;2023-03-01T07:05:13;2.40;93.70
36292;DHT22;22327;51.208;6.418;2023-03-01T07:07:39;2.50;93.50
36292;DHT22;22327;51.208;6.418;2023-03-01T07:10:05;2.60;93.00
36292;DHT22;22327;51.208;6.418;2023-03-01T07:12:30;2.70;92.80
36292;DHT22;22327;51.208;6.418;2023-03-01T07:14:56;2.80;92.90
36292;DHT22;22327;51.208;6.418;2023-03-01T07:17:21;2.90;92.40
36292;DHT22;22327;51.208;6.418;2023-03-01T07:19:47;2.90;92.10
36292;DHT22;22327;51.208;6.418;2023-03-01T07:22:12;3.00;92.30
36292;DHT22;22327;51.208;6.418;2023-03-01T07:24:38;3.10;92.40
36292;DHT22;22327;51.208;6.418;2023-03-01T07:27:03;3.50;92.40
36292;DHT22;22327;51.208;6.418;2023-03-01T07:29:29;3.70;91.50
36292;DHT22;22327;51.208;6.418;2023-03-01T07:31:55;3.90;91.30
36292;DHT22;22327;51.208;6.418;2023-03-01T07:34:20;4.10;90.50
36292;DHT22;22327;51.208;6.418;2023-03-01T07:36:46;4.20;90.00
36292;DHT22;22327;51.208;6.418;2023-03-01T07:39:11;4.30;89.60
36292;DHT22;22327;51.208;6.418;2023-03-01T07:41:37;4.40;89.40
36292;DHT22;22327;51.208;6.418;2023-03-01T07:44:03;4.50;87.20
36292;DHT22;22327;51.208;6.418;2023-03-01T07:46:28;4.60;88.60
36292;DHT22;22327;51.208;6.418;2023-03-01T07:48:54;4.90;87.90
36292;DHT22;22327;51.208;6.418;2023-03-01T07:51:19;5.10;86.30
36292;DHT22;22327;51.208;6.418;2023-03-01T07:53:48;5.20;85.20
36292;DHT22;22327;51.208;6.418;2023-03-01T07:56:14;5.30;84.70
36292;DHT22;22327;51.208;6.418;2023-03-01T07:58:43;5.30;84.50
36292;DHT22;22327;51.208;6.418;2023-03-01T08:01:12;5.50;86.40
36292;DHT22;22327;51.208;6.418;2023-03-01T08:03:38;5.80;85.00
36292;DHT22;22327;51.208;6.418;2023-03-01T08:06:06;6.00;83.50
36292;DHT22;22327;51.208;6.418;2023-03-01T08:08:33;6.00;82.00
36292;DHT22;22327;51.208;6.418;2023-03-01T08:10:59;6.00;81.50
36292;DHT22;22327;51.208;6.418;2023-03-01T08:13:26;5.90;80.80
36292;DHT22;22327;51.208;6.418;2023-03-01T08:15:52;5.80;80.80
36292;DHT22;22327;51.208;6.418;2023-03-01T08:18:19;5.60;80.00
36292;DHT22;22327;51.208;6.418;2023-03-01T08:20:45;5.40;80.40
36292;DHT22;22327;51.208;6.418;2023-03-01T08:23:11;5.40;81.20
36292;DHT22;22327;51.208;6.418;2023-03-01T08:25:37;5.40;80.80
36292;DHT22;22327;51.208;6.418;2023-03-01T08:28:03;5.50;81.20
36292;DHT22;22327;51.208;6.418;2023-03-01T08:30:29;5.70;81.30
36292;DHT22;22327;51.208;6.418;2023-03-01T08:32:54;5.80;78.90
36292;DHT22;22327;51.208;6.418;2023-03-01T08:35:20;5.90;80.40
36292;DHT22;22327;51.208;6.418;2023-03-01T08:37:46;6.20;78.50
36292;DHT22;22327;51.208;6.418;2023-03-01T08:40:12;6.40;78.80
36292;DHT22;22327;51.208;6.418;2023-03-01T08:42:40;6.60;78.20
36292;DHT22;22327;51.208;6.418;2023-03-01T08:45:06;6.80;76.50
36292;DHT22;22327;51.208;6.418;2023-03-01T08:47:32;6.90;75.40
36292;DHT22;22327;51.208;6.418;2023-03-01T08:50:01;6.90;76.00
36292;DHT22;22327;51.208;6.418;2023-03-01T08:52:27;6.90;74.20
36292;DHT22;22327;51.208;6.418;2023-03-01T08:54:53;7.00;75.40
36292;DHT22;22327;51.208;6.418;2023-03-01T08:57:18;7.10;75.50
36292;DHT22;22327;51.208;6.418;2023-03-01T08:59:44;7.40;74.40
36292;DHT22;22327;51.208;6.418;2023-03-01T09:02:15;7.60;73.20
36292;DHT22;22327;51.208;6.418;2023-03-01T09:04:41;7.80;73.70
36292;DHT22;22327;51.208;6.418;2023-03-01T09:07:08;8.30;72.60
36292;DHT22;22327;51.208;6.418;2023-03-01T09:09:34;8.50;69.80
36292;DHT22;22327;51.208;6.418;2023-03-01T09:12:00;8.90;69.50
36292;DHT22;22327;51.208;6.418;2023-03-01T09:14:25;9.20;67.30
36292;DHT22;22327;51.208;6.418;2023-03-01T09:16:51;9.80;66.50
36292;DHT22;22327;51.208;6.418;2023-03-01T09:19:16;10.50;61.40
36292;DHT22;22327;51.208;6.418;2023-03-01T09:21:42;10.80;60.40
36292;DHT22;22327;51.208;6.418;2023-03-01T09:24:17;11.40;61.60
36292;DHT22;22327;51.208;6.418;2023-03-01T09:26:43;12.10;58.40
36292;DHT22;22327;51.208;6.418;2023-03-01T09:29:11;12.80;56.60
36292;DHT22;22327;51.208;6.418;2023-03-01T09:31:38;13.50;54.90
36292;DHT22;22327;51.208;6.418;2023-03-01T09:34:04;13.80;50.30
36292;DHT22;22327;51.208;6.418;2023-03-01T09:36:30;13.80;47.00
36292;DHT22;22327;51.208;6.418;2023-03-01T09:38:57;13.70;48.40
36292;DHT22;22327;51.208;6.418;2023-03-01T09:41:43;13.90;48.70
36292;DHT22;22327;51.208;6.418;2023-03-01T09:46:59;13.70;48.20
36292;DHT22;22327;51.208;6.418;2023-03-01T09:49:30;13.90;46.10
36292;DHT22;22327;51.208;6.418;2023-03-01T09:52:11;13.90;46.70
36292;DHT22;22327;51.208;6.418;2023-03-01T09:54:38;13.80;45.10
36292;DHT22;22327;51.208;6.418;2023-03-01T09:57:16;13.60;46.60
36292;DHT22;22327;51.208;6.418;2023-03-01T10:00:01;13.30;44.80
36292;DHT22;22327;51.208;6.418;2023-03-01T10:02:41;12.60;46.00
36292;DHT22;22327;51.208;6.418;2023-03-01T10:07:52;11.70;49.60
36292;DHT22;22327;51.208;6.418;2023-03-01T10:10:33;11.40;49.90
36292;DHT22;22327;51.208;6.418;2023-03-01T10:13:09;10.80;50.00
36292;DHT22;22327;51.208;6.418;2023-03-01T10:15:44;10.10;51.10
36292;DHT22;22327;51.208;6.418;2023-03-01T10:18:18;9.80;52.50
36292;DHT22;22327;51.208;6.418;2023-03-01T10:23:20;9.00;54.10
36292;DHT22;22327;51.208;6.418;2023-03-01T10:26:23;8.60;55.60
36292;DHT22;22327;51.208;6.418;2023-03-01T10:31:49;8.30;57.50
36292;DHT22;22327;51.208;6.418;2023-03-01T10:34:33;8.40;57.60
36292;DHT22;22327;51.208;6.418;2023-03-01T10:37:15;8.40;58.00
36292;DHT22;22327;51.208;6.418;2023-03-01T10:40:06;8.30;57.00
36292;DHT22;22327;51.208;6.418;2023-03-01T10:42:38;8.30;57.30
36292;DHT22;22327;51.208;6.418;2023-03-01T10:45:38;8.20;58.00
36292;DHT22;22327;51.208;6.418;2023-03-01T10:51:15;8.00;58.10
36292;DHT22;22327;51.208;6.418;2023-03-01T10:53:47;8.10;58.40
36292;DHT22;22327;51.208;6.418;2023-03-01T10:56:14;8.10;58.70
36292;DHT22;22327;51.208;6.418;2023-03-01T10:58:58;8.10;58.90
36292;DHT22;22327;51.208;6.418;2023-03-01T11:01:29;8.20;58.70
36292;DHT22;22327;51.208;6.418;2023-03-01T11:06:32;8.00;59.10
36292;DHT22;22327;51.208;6.418;2023-03-01T11:09:14;8.00;59.10
36292;DHT22;22327;51.208;6.418;2023-03-01T11:11:40;8.00;58.80
36292;DHT22;22327;51.208;6.418;2023-03-01T11:14:24;8.00;57.70
36292;DHT22;22327;51.208;6.418;2023-03-01T11:17:13;8.00;57.40
36292;DHT22;22327;51.208;6.418;2023-03-01T11:19:40;8.00;57.20
36292;DHT22;22327;51.208;6.418;2023-03-01T11:22:12;7.90;56.90
36292;DHT22;22327;51.208;6.418;2023-03-01T11:24:49;7.90;57.60
36292;DHT22;22327;51.208;6.418;2023-03-01T11:27:20;8.10;58.00
36292;DHT22;22327;51.208;6.418;2023-03-01T11:32:28;8.30;57.90
36292;DHT22;22327;51.208;6.418;2023-03-01T11:35:05;8.40;57.80
36292;DHT22;22327;51.208;6.418;2023-03-01T11:37:43;8.40;57.60
36292;DHT22;22327;51.208;6.418;2023-03-01T11:40:22;8.50;57.80
36292;DHT22;22327;51.208;6.418;2023-03-01T11:42:50;8.50;57.00
36292;DHT22;22327;51.208;6.418;2023-03-01T11:45:17;8.50;56.50
36292;DHT22;22327;51.208;6.418;2023-03-01T11:50:42;8.60;57.40
36292;DHT22;22327;51.208;6.418;2023-03-01T11:53:31;8.60;57.10
36292;DHT22;22327;51.208;6.418;2023-03-01T11:56:09;8.70;56.80
36292;DHT22;22327;51.208;6.418;2023-03-01T12:01:39;8.60;56.50
36292;DHT22;22327;51.208;6.418;2023-03-01T12:10:03;8.60;56.30
36292;DHT22;22327;51.208;6.418;2023-03-01T12:13:13;8.50;56.30
36292;DHT22;22327;51.208;6.418;2023-03-01T12:24:19;8.60;55.80
36292;DHT22;22327;51.208;6.418;2023-03-01T12:34:37;8.80;53.40
36292;DHT22;22327;51.208;6.418;2023-03-01T12:37:17;8.70;54.10
36292;DHT22;22327;51.208;6.418;2023-03-01T12:50:54;9.00;53.50
36292;DHT22;22327;51.208;6.418;2023-03-01T12:53:26;9.00;54.20
36292;DHT22;22327;51.208;6.418;2023-03-01T12:55:59;9.20;52.50
36292;DHT22;22327;51.208;6.418;2023-03-01T13:01:22;9.40;53.00
36292;DHT22;22327;51.208;6.418;2023-03-01T13:04:18;9.50;53.00
36292;DHT22;22327;51.208;6.418;2023-03-01T13:10:02;9.70;52.20
36292;DHT22;22327;51.208;6.418;2023-03-01T13:17:55;9.60;51.40
36292;DHT22;22327;51.208;6.418;2023-03-01T13:26:10;9.70;50.50
36292;DHT22;22327;51.208;6.418;2023-03-01T13:28:49;9.80;50.00
36292;DHT22;22327;51.208;6.418;2023-03-01T13:34:06;9.70;51.00
36292;DHT22;22327;51.208;6.418;2023-03-01T13:36:52;9.70;51.50
36292;DHT22;22327;51.208;6.418;2023-03-01T13:39:32;9.70;51.40
36292;DHT22;22327;51.208;6.418;2023-03-01T13:42:25;9.80;51.20
36292;DHT22;22327;51.208;6.418;2023-03-01T13:44:49;9.90;51.40
36292;DHT22;22327;51.208;6.418;2023-03-01T13:47:17;9.90;49.70
36292;DHT22;22327;51.208;6.418;2023-03-01T13:49:53;9.90;49.20
36292;DHT22;22327;51.208;6.418;2023-03-01T13:52:36;9.80;49.40
36292;DHT22;22327;51.208;6.418;2023-03-01T13:55:31;9.80;49.90
36292;DHT22;22327;51.208;6.418;2023-03-01T13:58:02;9.80;49.70
36292;DHT22;22327;51.208;6.418;2023-03-01T14:00:36;9.80;49.90
36292;DHT22;22327;51.208;6.418;2023-03-01T14:03:18;9.80;50.20
36292;DHT22;22327;51.208;6.418;2023-03-01T14:06:13;9.80;49.50
36292;DHT22;22327;51.208;6.418;2023-03-01T14:08:41;9.70;49.10
36292;DHT22;22327;51.208;6.418;2023-03-01T14:16:54;9.70;50.70
36292;DHT22;22327;51.208;6.418;2023-03-01T14:19:28;9.70;51.00
36292;DHT22;22327;51.208;6.418;2023-03-01T14:24:30;9.90;51.10
36292;DHT22;22327;51.208;6.418;2023-03-01T14:27:00;10.00;50.80
36292;DHT22;22327;51.208;6.418;2023-03-01T14:29:37;10.00;50.10
36292;DHT22;22327;51.208;6.418;2023-03-01T14:32:20;10.00;50.00
36292;DHT22;22327;51.208;6.418;2023-03-01T14:34:48;9.90;50.00
36292;DHT22;22327;51.208;6.418;2023-03-01T14:37:32;9.90;51.00
36292;DHT22;22327;51.208;6.418;2023-03-01T14:39:58;9.90;50.20
36292;DHT22;22327;51.208;6.418;2023-03-01T14:42:27;9.80;50.20
36292;DHT22;22327;51.208;6.418;2023-03-01T14:44:54;9.90;50.30
36292;DHT22;22327;51.208;6.418;2023-03-01T14:47:35;9.90;50.50
36292;DHT22;22327;51.208;6.418;2023-03-01T14:50:40;10.00;50.10
36292;DHT22;22327;51.208;6.418;2023-03-01T14:53:01;10.00;50.10
36292;DHT22;22327;51.208;6.418;2023-03-01T14:55:38;10.00;50.20
36292;DHT22;22327;51.208;6.418;2023-03-01T14:58:11;9.90;50.10
36292;DHT22;22327;51.208;6.418;2023-03-01T15:00:37;10.00;49.60
36292;DHT22;22327;51.208;6.418;2023-03-01T15:03:11;9.90;49.50
36292;DHT22;22327;51.208;6.418;2023-03-01T15:05:40;9.90;49.80
36292;DHT22;22327;51.208;6.418;2023-03-01T15:08:06;9.90;50.00
36292;DHT22;22327;51.208;6.418;2023-03-01T15:10:35;9.90;50.30
36292;DHT22;22327;51.208;6.418;2023-03-01T15:13:19;9.90;50.70
36292;DHT22;22327;51.208;6.418;2023-03-01T15:15:47;10.00;50.70
36292;DHT22;22327;51.208;6.418;2023-03-01T15:20:39;10.00;50.80
36292;DHT22;22327;51.208;6.418;2023-03-01T15:23:05;10.00;50.90
36292;DHT22;22327;51.208;6.418;2023-03-01T15:25:32;9.90;51.20
36292;DHT22;22327;51.208;6.418;2023-03-01T15:27:59;10.00;51.30
36292;DHT22;22327;51.208;6.418;2023-03-01T15:30:32;9.90;51.10
36292;DHT22;22327;51.208;6.418;2023-03-01T15:33:29;9.90;50.80
36292;DHT22;22327;51.208;6.418;2023-03-01T15:35:57;9.80;50.70
36292;DHT22;22327;51.208;6.418;2023-03-01T15:40:58;9.80;51.60
36292;DHT22;22327;51.208;6.418;2023-03-01T15:44:00;9.80;51.50
36292;DHT22;22327;51.208;6.418;2023-03-01T15:46:35;9.80;51.30
36292;DHT22;22327;51.208;6.418;2023-03-01T15:52:08;9.70;51.70
36292;DHT22;22327;51.208;6.418;2023-03-01T15:54:35;9.70;52.00
36292;DHT22;22327;51.208;6.418;2023-03-01T15:57:03;9.80;52.10
36292;DHT22;22327;51.208;6.418;2023-03-01T15:59:28;9.70;52.10
36292;DHT22;22327;51.208;6.418;2023-03-01T16:01:54;9.70;52.30
36292;DHT22;22327;51.208;6.418;2023-03-01T16:04:19;9.70;52.10
36292;DHT22;22327;51.208;6.418;2023-03-01T16:06:49;9.60;52.10
36292;DHT22;22327;51.208;6.418;2023-03-01T16:09:23;9.60;52.20
36292;DHT22;22327;51.208;6.418;2023-03-01T16:11:49;9.60;52.40
36292;DHT22;22327;51.208;6.418;2023-03-01T16:14:15;9.50;52.60
36292;DHT22;22327;51.208;6.418;2023-03-01T16:16:42;9.50;52.80
36292;DHT22;22327;51.208;6.418;2023-03-01T16:19:08;9.40;52.90
36292;DHT22;22327;51.208;6.418;2023-03-01T16:21:33;9.40;53.20
36292;DHT22;22327;51.208;6.418;2023-03-01T16:23:59;9.30;53.00
36292;DHT22;22327;51.208;6.418;2023-03-01T16:26:24;9.30;53.20
36292;DHT22;22327;51.208;6.418;2023-03-01T16:28:50;9.30;53.30
36292;DHT22;22327;51.208;6.418;2023-03-01T16:31:19;9.20;53.40
36292;DHT22;22327;51.208;6.418;2023-03-01T16:33:45;9.20;53.70
36292;DHT22;22327;51.208;6.418;2023-03-01T16:36:20;9.20;53.80
36292;DHT22;22327;51.208;6.418;2023-03-01T16:38:46;9.20;53.60
36292;DHT22;22327;51.208;6.418;2023-03-01T16:41:14;9.10;53.70
36292;DHT22;22327;51.208;6.418;2023-03-01T16:43:40;9.10;53.50
36292;DHT22;22327;51.208;6.418;2023-03-01T16:46:13;9.10;53.50
36292;DHT22;22327;51.208;6.418;2023-03-01T16:48:39;9.10;53.80
36292;DHT22;22327;51.208;6.418;2023-03-01T16:51:05;9.10;53.90
36292;DHT22;22327;51.208;6.418;2023-03-01T16:53:33;9.10;54.10
36292;DHT22;22327;51.208;6.418;2023-03-01T16:55:59;9.00;54.20
36292;DHT22;22327;51.208;6.418;2023-03-01T16:58:25;8.90;54.60
36292;DHT22;22327;51.208;6.418;2023-03-01T17:00:54;8.80;54.70
36292;DHT22;22327;51.208;6.418;2023-03-01T17:03:22;8.80;55.50
36292;DHT22;22327;51.208;6.418;2023-03-01T17:05:48;8.70;55.00
36292;DHT22;22327;51.208;6.418;2023-03-01T17:08:13;8.60;55.40
36292;DHT22;22327;51.208;6.418;2023-03-01T17:10:39;8.60;55.60
36292;DHT22;22327;51.208;6.418;2023-03-01T17:13:07;8.60;55.80
36292;DHT22;22327;51.208;6.418;2023-03-01T17:15:34;8.50;55.90
36292;DHT22;22327;51.208;6.418;2023-03-01T17:17:59;8.50;56.20
36292;DHT22;22327;51.208;6.418;2023-03-01T17:20:25;8.40;56.50
36292;DHT22;22327;51.208;6.418;2023-03-01T17:22:50;8.40;56.80
36292;DHT22;22327;51.208;6.418;2023-03-01T17:25:17;8.30;57.00
36292;DHT22;22327;51.208;6.418;2023-03-01T17:27:43;8.30;57.10
36292;DHT22;22327;51.208;6.418;2023-03-01T17:30:10;8.20;57.40
36292;DHT22;22327;51.208;6.418;2023-03-01T17:32:36;8.20;57.60
36292;DHT22;22327;51.208;6.418;2023-03-01T17:35:01;8.10;57.70
36292;DHT22;22327;51.208;6.418;2023-03-01T17:37:27;8.10;57.90
36292;DHT22;22327;51.208;6.418;2023-03-01T17:39:52;8.00;57.90